WJA999 EGPH-EGLL
Flight info
| Callsign | WJA999 |
|---|---|
| Flight time | 1h 10m |
| Altitude | 33000 |
| Route | GOSAM P600 FENIK L612 NAVSO DCT AKOMU DCT VAMEB DCT NUGRA |
| Aircraft | B737/M-SDE2E3FGHIRWXY/LB1 |
Departure
| Time | 2026-05-04 13:08 |
|---|---|
| Airport | Edinburgh Airport (EGPH) |
Arrival
| Time | 2026-05-04 14:18 |
|---|---|
| Airport | London Heathrow Airport (EGLL) |
| Time | Latitude | Longitude | Altitude | Speed | Heading |
|---|---|---|---|---|---|
| 2026-05-04 12:46 | 55.94657 | -3.36614 | 115 ft | 0 kts | 89° |
| 2026-05-04 12:55 | 55.94657 | -3.36615 | 115 ft | 0 kts | 89° |
| 2026-05-04 12:59 | 55.94657 | -3.36623 | 111 ft | 2 kts | 89° |
| 2026-05-04 12:59 | 55.94657 | -3.36652 | 114 ft | 2 kts | 89° |
| 2026-05-04 12:59 | 55.94656 | -3.36681 | 113 ft | 2 kts | 66° |
| 2026-05-04 13:00 | 55.94647 | -3.36701 | 115 ft | 1 kts | 9° |
| 2026-05-04 13:00 | 55.94643 | -3.36702 | 115 ft | 0 kts | 5° |
| 2026-05-04 13:02 | 55.94675 | -3.36722 | 115 ft | 10 kts | 334° |
| 2026-05-04 13:02 | 55.94746 | -3.36740 | 115 ft | 10 kts | 342° |
| 2026-05-04 13:02 | 55.94812 | -3.36776 | 115 ft | 10 kts | 356° |
| 2026-05-04 13:03 | 55.94880 | -3.36788 | 115 ft | 10 kts | 336° |
| 2026-05-04 13:03 | 55.94942 | -3.36818 | 115 ft | 10 kts | 25° |
| 2026-05-04 13:03 | 55.94988 | -3.36712 | 114 ft | 12 kts | 59° |
| 2026-05-04 13:03 | 55.95037 | -3.36567 | 112 ft | 15 kts | 58° |
| 2026-05-04 13:04 | 55.95098 | -3.36388 | 114 ft | 19 kts | 59° |
| 2026-05-04 13:04 | 55.95169 | -3.36173 | 114 ft | 22 kts | 58° |
| 2026-05-04 13:04 | 55.95252 | -3.35927 | 115 ft | 24 kts | 59° |
| 2026-05-04 13:04 | 55.95345 | -3.35654 | 113 ft | 27 kts | 58° |
| 2026-05-04 13:05 | 55.95421 | -3.35432 | 115 ft | 16 kts | 55° |
| 2026-05-04 13:05 | 55.95501 | -3.35441 | 114 ft | 0 kts | 328° |
| 2026-05-04 13:05 | 55.95517 | -3.35459 | 114 ft | 4 kts | 328° |
| 2026-05-04 13:06 | 55.95561 | -3.35512 | 111 ft | 10 kts | 310° |
| 2026-05-04 13:06 | 55.95553 | -3.35618 | 111 ft | 0 kts | 239° |
| 2026-05-04 13:06 | 55.95551 | -3.35626 | 111 ft | 3 kts | 239° |
| 2026-05-04 13:07 | 55.95524 | -3.35705 | 111 ft | 12 kts | 239° |
| 2026-05-04 13:07 | 55.95439 | -3.35957 | 110 ft | 51 kts | 239° |
| 2026-05-04 13:07 | 55.95124 | -3.36888 | 113 ft | 121 kts | 238° |
| 2026-05-04 13:07 | 55.94647 | -3.38486 | 276 ft | 161 kts | 244° |
| 2026-05-04 13:08 | 55.94058 | -3.40328 | 745 ft | 187 kts | 242° |
| 2026-05-04 13:08 | 55.93302 | -3.42441 | 1030 ft | 214 kts | 239° |
| 2026-05-04 13:08 | 55.92487 | -3.44662 | 1864 ft | 213 kts | 240° |
| 2026-05-04 13:08 | 55.91655 | -3.47003 | 2628 ft | 235 kts | 240° |
| 2026-05-04 13:09 | 55.90817 | -3.49568 | 3531 ft | 242 kts | 243° |
| 2026-05-04 13:09 | 55.90217 | -3.52334 | 3880 ft | 236 kts | 261° |
| 2026-05-04 13:09 | 55.89968 | -3.55214 | 3986 ft | 241 kts | 262° |
| 2026-05-04 13:09 | 55.89695 | -3.58224 | 4005 ft | 248 kts | 261° |
| 2026-05-04 13:10 | 55.89405 | -3.61258 | 4004 ft | 248 kts | 261° |
| 2026-05-04 13:10 | 55.89114 | -3.64216 | 4093 ft | 242 kts | 261° |
| 2026-05-04 13:10 | 55.88820 | -3.67205 | 4373 ft | 250 kts | 261° |
| 2026-05-04 13:10 | 55.88514 | -3.70267 | 5421 ft | 248 kts | 261° |
| 2026-05-04 13:11 | 55.88203 | -3.73356 | 5882 ft | 255 kts | 260° |
| 2026-05-04 13:11 | 55.87888 | -3.76471 | 5987 ft | 258 kts | 261° |
| 2026-05-04 13:11 | 55.87571 | -3.79604 | 6000 ft | 256 kts | 260° |
| 2026-05-04 13:11 | 55.87260 | -3.82728 | 5997 ft | 255 kts | 261° |
| 2026-05-04 13:12 | 55.86954 | -3.85808 | 6004 ft | 252 kts | 261° |
| 2026-05-04 13:12 | 55.86653 | -3.88835 | 6013 ft | 251 kts | 261° |
| 2026-05-04 13:12 | 55.86342 | -3.91950 | 6024 ft | 253 kts | 261° |
| 2026-05-04 13:12 | 55.86039 | -3.94991 | 6007 ft | 254 kts | 261° |
| 2026-05-04 13:13 | 55.85728 | -3.98095 | 6012 ft | 257 kts | 261° |
| 2026-05-04 13:13 | 55.85410 | -4.01256 | 6023 ft | 260 kts | 261° |
| 2026-05-04 13:13 | 55.85091 | -4.04406 | 6022 ft | 258 kts | 261° |
| 2026-05-04 13:13 | 55.84773 | -4.07544 | 6028 ft | 257 kts | 261° |
| 2026-05-04 13:14 | 55.84305 | -4.10573 | 6014 ft | 253 kts | 249° |
| 2026-05-04 13:14 | 55.83447 | -4.13284 | 6015 ft | 253 kts | 236° |
| 2026-05-04 13:14 | 55.82311 | -4.15690 | 6025 ft | 257 kts | 226° |
| 2026-05-04 13:14 | 55.80911 | -4.17743 | 6035 ft | 264 kts | 219° |
| 2026-05-04 13:15 | 55.79396 | -4.19600 | 6023 ft | 264 kts | 216° |
| 2026-05-04 13:15 | 55.77872 | -4.21413 | 6022 ft | 264 kts | 217° |
| 2026-05-04 13:15 | 55.76358 | -4.23246 | 6330 ft | 266 kts | 218° |
| 2026-05-04 13:15 | 55.74825 | -4.25122 | 7329 ft | 266 kts | 218° |
| 2026-05-04 13:16 | 55.73280 | -4.26980 | 8309 ft | 272 kts | 212° |
| 2026-05-04 13:16 | 55.71448 | -4.27943 | 9276 ft | 283 kts | 185° |
| 2026-05-04 13:16 | 55.69493 | -4.27294 | 10210 ft | 294 kts | 160° |
| 2026-05-04 13:16 | 55.67609 | -4.25616 | 10723 ft | 315 kts | 154° |
| 2026-05-04 13:17 | 55.65612 | -4.23624 | 10917 ft | 344 kts | 153° |
| 2026-05-04 13:17 | 55.63482 | -4.21466 | 11391 ft | 360 kts | 152° |
| 2026-05-04 13:17 | 55.61284 | -4.19256 | 12183 ft | 365 kts | 152° |
| 2026-05-04 13:17 | 55.59057 | -4.17042 | 13028 ft | 370 kts | 153° |
| 2026-05-04 13:18 | 55.56784 | -4.14804 | 13881 ft | 376 kts | 153° |
| 2026-05-04 13:18 | 55.54485 | -4.12555 | 14668 ft | 381 kts | 153° |
| 2026-05-04 13:18 | 55.52154 | -4.10283 | 15501 ft | 385 kts | 153° |
| 2026-05-04 13:18 | 55.49790 | -4.07986 | 16332 ft | 389 kts | 153° |
| 2026-05-04 13:19 | 55.47404 | -4.05668 | 17140 ft | 394 kts | 153° |
| 2026-05-04 13:19 | 55.44988 | -4.03320 | 17913 ft | 399 kts | 153° |
| 2026-05-04 13:19 | 55.42545 | -4.00949 | 18691 ft | 403 kts | 153° |
| 2026-05-04 13:19 | 55.40084 | -3.98561 | 19438 ft | 405 kts | 152° |
| 2026-05-04 13:20 | 55.37611 | -3.96165 | 20100 ft | 410 kts | 152° |
| 2026-05-04 13:20 | 55.35096 | -3.93731 | 20681 ft | 417 kts | 152° |
| 2026-05-04 13:20 | 55.32537 | -3.91258 | 21349 ft | 421 kts | 152° |
| 2026-05-04 13:20 | 55.29961 | -3.88772 | 22121 ft | 421 kts | 152° |
| 2026-05-04 13:21 | 55.27391 | -3.86295 | 22835 ft | 425 kts | 152° |
| 2026-05-04 13:21 | 55.24783 | -3.83786 | 23509 ft | 429 kts | 151° |
| 2026-05-04 13:21 | 55.22190 | -3.81297 | 24001 ft | 434 kts | 151° |
| 2026-05-04 13:21 | 55.19505 | -3.78835 | 24497 ft | 437 kts | 153° |
| 2026-05-04 13:22 | 55.16769 | -3.76468 | 25039 ft | 440 kts | 154° |
| 2026-05-04 13:22 | 55.14000 | -3.74127 | 25521 ft | 444 kts | 154° |
| 2026-05-04 13:22 | 55.11165 | -3.71741 | 26004 ft | 448 kts | 154° |
| 2026-05-04 13:22 | 55.08383 | -3.69392 | 26489 ft | 451 kts | 154° |
| 2026-05-04 13:23 | 55.05549 | -3.66990 | 26940 ft | 455 kts | 154° |
| 2026-05-04 13:23 | 55.02689 | -3.64557 | 27390 ft | 459 kts | 154° |
| 2026-05-04 13:23 | 54.99813 | -3.62106 | 27835 ft | 462 kts | 154° |
| 2026-05-04 13:23 | 54.96908 | -3.59630 | 28259 ft | 466 kts | 154° |
| 2026-05-04 13:24 | 54.93991 | -3.57146 | 28671 ft | 467 kts | 153° |
| 2026-05-04 13:24 | 54.91081 | -3.54671 | 29185 ft | 463 kts | 153° |
| 2026-05-04 13:24 | 54.88196 | -3.52223 | 29741 ft | 461 kts | 153° |
| 2026-05-04 13:25 | 54.82444 | -3.47353 | 30770 ft | 459 kts | 153° |
| 2026-05-04 13:25 | 54.79578 | -3.44932 | 31326 ft | 457 kts | 153° |
| 2026-05-04 13:25 | 54.76735 | -3.42536 | 31966 ft | 452 kts | 153° |
| 2026-05-04 13:25 | 54.73921 | -3.40168 | 32606 ft | 447 kts | 153° |
| 2026-05-04 13:26 | 54.71125 | -3.37818 | 33070 ft | 447 kts | 153° |
| 2026-05-04 13:26 | 54.68297 | -3.35444 | 33046 ft | 456 kts | 153° |
| 2026-05-04 13:26 | 54.62509 | -3.30594 | 33070 ft | 469 kts | 153° |
| 2026-05-04 13:27 | 54.56601 | -3.25664 | 33058 ft | 472 kts | 153° |
| 2026-05-04 13:27 | 54.50699 | -3.20757 | 33064 ft | 470 kts | 152° |
| 2026-05-04 13:28 | 54.44806 | -3.15871 | 33051 ft | 469 kts | 152° |
| 2026-05-04 13:28 | 54.38942 | -3.11025 | 33053 ft | 467 kts | 152° |
| 2026-05-04 13:29 | 54.33100 | -3.06211 | 33051 ft | 465 kts | 152° |
| 2026-05-04 13:29 | 54.27310 | -3.01455 | 33058 ft | 464 kts | 152° |
| 2026-05-04 13:30 | 54.21485 | -2.96683 | 33049 ft | 464 kts | 152° |
| 2026-05-04 13:30 | 54.15667 | -2.91960 | 33052 ft | 463 kts | 153° |
| 2026-05-04 13:31 | 54.09738 | -2.87669 | 33056 ft | 463 kts | 154° |
| 2026-05-04 13:31 | 54.03802 | -2.83446 | 33069 ft | 462 kts | 154° |
| 2026-05-04 13:32 | 53.98863 | -2.79986 | 33054 ft | 463 kts | 157° |
| 2026-05-04 13:32 | 53.92723 | -2.76644 | 33071 ft | 463 kts | 160° |
| 2026-05-04 13:33 | 53.86545 | -2.73530 | 33056 ft | 462 kts | 160° |
| 2026-05-04 13:33 | 53.80397 | -2.70372 | 33059 ft | 461 kts | 159° |
| 2026-05-04 13:34 | 53.74265 | -2.67164 | 33058 ft | 461 kts | 159° |
| 2026-05-04 13:34 | 53.68145 | -2.63954 | 33064 ft | 461 kts | 159° |
| 2026-05-04 13:35 | 53.58966 | -2.59156 | 33058 ft | 460 kts | 159° |
| 2026-05-04 13:36 | 53.52848 | -2.55974 | 33058 ft | 460 kts | 159° |
| 2026-05-04 13:36 | 53.46726 | -2.52800 | 33058 ft | 460 kts | 159° |
| 2026-05-04 13:37 | 53.40607 | -2.49637 | 33068 ft | 461 kts | 159° |
| 2026-05-04 13:37 | 53.34471 | -2.46475 | 33076 ft | 461 kts | 159° |
| 2026-05-04 13:38 | 53.28342 | -2.43325 | 33080 ft | 461 kts | 159° |
| 2026-05-04 13:38 | 53.22200 | -2.40178 | 33085 ft | 462 kts | 159° |
| 2026-05-04 13:39 | 53.16053 | -2.37039 | 33067 ft | 462 kts | 159° |
| 2026-05-04 13:39 | 53.09903 | -2.33906 | 33067 ft | 462 kts | 159° |
| 2026-05-04 13:40 | 53.03763 | -2.30774 | 33067 ft | 461 kts | 157° |
| 2026-05-04 13:40 | 53.00906 | -2.28503 | 33071 ft | 452 kts | 143° |
| 2026-05-04 13:40 | 52.98260 | -2.25676 | 33080 ft | 452 kts | 143° |
| 2026-05-04 13:41 | 52.92980 | -2.19978 | 33074 ft | 453 kts | 144° |
| 2026-05-04 13:41 | 52.87664 | -2.14339 | 33069 ft | 454 kts | 144° |
| 2026-05-04 13:42 | 52.79655 | -2.05980 | 33060 ft | 454 kts | 144° |
| 2026-05-04 13:42 | 52.74348 | -2.00476 | 33081 ft | 453 kts | 146° |
| 2026-05-04 13:43 | 52.69001 | -1.94945 | 33072 ft | 454 kts | 146° |
| 2026-05-04 13:43 | 52.63656 | -1.89429 | 33043 ft | 449 kts | 146° |
| 2026-05-04 13:44 | 52.61043 | -1.86739 | 32568 ft | 441 kts | 147° |
| 2026-05-04 13:44 | 52.58434 | -1.84056 | 31823 ft | 442 kts | 147° |
| 2026-05-04 13:44 | 52.55798 | -1.81348 | 31016 ft | 452 kts | 147° |
| 2026-05-04 13:44 | 52.53109 | -1.78589 | 30062 ft | 459 kts | 147° |
| 2026-05-04 13:45 | 52.50394 | -1.75807 | 28931 ft | 461 kts | 148° |
| 2026-05-04 13:45 | 52.47673 | -1.73025 | 27839 ft | 460 kts | 148° |
| 2026-05-04 13:45 | 52.44959 | -1.70255 | 26787 ft | 460 kts | 149° |
| 2026-05-04 13:45 | 52.42241 | -1.67486 | 25773 ft | 459 kts | 149° |
| 2026-05-04 13:46 | 52.39536 | -1.64732 | 24787 ft | 458 kts | 149° |
| 2026-05-04 13:46 | 52.36831 | -1.61983 | 23845 ft | 456 kts | 149° |
| 2026-05-04 13:46 | 52.34145 | -1.59256 | 22774 ft | 453 kts | 149° |
| 2026-05-04 13:46 | 52.31480 | -1.56555 | 21678 ft | 447 kts | 149° |
| 2026-05-04 13:47 | 52.28853 | -1.53896 | 20673 ft | 442 kts | 149° |
| 2026-05-04 13:47 | 52.26272 | -1.51285 | 20352 ft | 431 kts | 149° |
| 2026-05-04 13:47 | 52.23733 | -1.48723 | 20221 ft | 430 kts | 149° |
| 2026-05-04 13:47 | 52.21195 | -1.46124 | 20097 ft | 431 kts | 147° |
| 2026-05-04 13:48 | 52.18820 | -1.43158 | 20060 ft | 430 kts | 141° |
| 2026-05-04 13:48 | 52.16569 | -1.39957 | 20052 ft | 430 kts | 139° |
| 2026-05-04 13:48 | 52.14342 | -1.36683 | 20044 ft | 431 kts | 139° |
| 2026-05-04 13:48 | 52.12118 | -1.33437 | 20046 ft | 430 kts | 140° |
| 2026-05-04 13:49 | 52.09898 | -1.30257 | 19738 ft | 419 kts | 140° |
| 2026-05-04 13:49 | 52.07705 | -1.27167 | 18926 ft | 417 kts | 140° |
| 2026-05-04 13:49 | 52.05513 | -1.24116 | 17925 ft | 415 kts | 141° |
| 2026-05-04 13:49 | 52.03324 | -1.21086 | 16891 ft | 413 kts | 141° |
| 2026-05-04 13:50 | 52.01187 | -1.18132 | 16084 ft | 406 kts | 141° |
| 2026-05-04 13:50 | 51.99048 | -1.15177 | 15268 ft | 402 kts | 141° |
| 2026-05-04 13:50 | 51.96900 | -1.12212 | 14482 ft | 400 kts | 141° |
| 2026-05-04 13:50 | 51.94812 | -1.09333 | 13714 ft | 397 kts | 141° |
| 2026-05-04 13:51 | 51.92638 | -1.06338 | 12836 ft | 393 kts | 141° |
| 2026-05-04 13:51 | 51.90615 | -1.03553 | 12021 ft | 390 kts | 141° |
| 2026-05-04 13:51 | 51.88578 | -1.00753 | 11104 ft | 389 kts | 141° |
| 2026-05-04 13:51 | 51.86535 | -0.97947 | 10748 ft | 369 kts | 141° |
| 2026-05-04 13:52 | 51.82322 | -0.94416 | 10025 ft | 323 kts | 163° |
| 2026-05-04 13:52 | 51.80274 | -0.93301 | 9776 ft | 304 kts | 163° |
| 2026-05-04 13:52 | 51.78325 | -0.92238 | 9690 ft | 281 kts | 163° |
| 2026-05-04 13:53 | 51.76563 | -0.91269 | 9574 ft | 263 kts | 163° |
| 2026-05-04 13:53 | 51.74870 | -0.90333 | 9308 ft | 252 kts | 163° |
| 2026-05-04 13:53 | 51.73241 | -0.89429 | 9105 ft | 246 kts | 163° |
| 2026-05-04 13:54 | 51.69976 | -0.87613 | 9021 ft | 247 kts | 163° |
| 2026-05-04 13:54 | 51.68355 | -0.86709 | 9026 ft | 246 kts | 163° |
| 2026-05-04 13:54 | 51.65140 | -0.84751 | 9014 ft | 249 kts | 148° |
| 2026-05-04 13:55 | 51.63980 | -0.82713 | 9007 ft | 252 kts | 117° |
| 2026-05-04 13:55 | 51.63538 | -0.77144 | 9018 ft | 255 kts | 91° |
| 2026-05-04 13:55 | 51.63548 | -0.74281 | 9006 ft | 256 kts | 91° |
| 2026-05-04 13:56 | 51.63567 | -0.71440 | 8789 ft | 252 kts | 91° |
| 2026-05-04 13:56 | 51.63586 | -0.68621 | 8332 ft | 252 kts | 90° |
| 2026-05-04 13:56 | 51.63621 | -0.62910 | 8066 ft | 260 kts | 91° |
| 2026-05-04 13:57 | 51.63640 | -0.60000 | 8017 ft | 259 kts | 91° |
| 2026-05-04 13:57 | 51.63657 | -0.57132 | 8016 ft | 254 kts | 90° |
| 2026-05-04 13:58 | 51.63705 | -0.48653 | 8031 ft | 254 kts | 91° |
| 2026-05-04 13:58 | 51.63556 | -0.42931 | 8017 ft | 257 kts | 105° |
| 2026-05-04 13:58 | 51.63122 | -0.40140 | 8027 ft | 259 kts | 106° |
| 2026-05-04 13:59 | 51.62681 | -0.37338 | 8014 ft | 257 kts | 106° |
| 2026-05-04 13:59 | 51.62250 | -0.34577 | 8019 ft | 252 kts | 106° |
| 2026-05-04 13:59 | 51.61402 | -0.29159 | 8064 ft | 248 kts | 106° |
| 2026-05-04 14:00 | 51.60987 | -0.26489 | 8072 ft | 249 kts | 105° |
| 2026-05-04 14:00 | 51.59918 | -0.21128 | 8052 ft | 251 kts | 129° |
| 2026-05-04 14:00 | 51.58617 | -0.19393 | 8067 ft | 243 kts | 159° |
| 2026-05-04 14:01 | 51.56990 | -0.18968 | 7878 ft | 236 kts | 188° |
| 2026-05-04 14:01 | 51.55505 | -0.19908 | 7509 ft | 236 kts | 219° |
| 2026-05-04 14:01 | 51.54318 | -0.24615 | 6837 ft | 237 kts | 269° |
| 2026-05-04 14:02 | 51.54344 | -0.27258 | 6548 ft | 236 kts | 270° |
| 2026-05-04 14:02 | 51.54401 | -0.29891 | 6269 ft | 234 kts | 270° |
| 2026-05-04 14:02 | 51.54460 | -0.32488 | 5949 ft | 234 kts | 271° |
| 2026-05-04 14:02 | 51.54514 | -0.35116 | 5591 ft | 236 kts | 271° |
| 2026-05-04 14:03 | 51.54559 | -0.37751 | 5287 ft | 236 kts | 271° |
| 2026-05-04 14:03 | 51.54598 | -0.40377 | 5002 ft | 234 kts | 271° |
| 2026-05-04 14:03 | 51.54632 | -0.42992 | 4691 ft | 234 kts | 271° |
| 2026-05-04 14:03 | 51.54661 | -0.45610 | 4382 ft | 234 kts | 271° |
| 2026-05-04 14:04 | 51.54702 | -0.50830 | 4027 ft | 233 kts | 271° |
| 2026-05-04 14:04 | 51.54717 | -0.53432 | 4000 ft | 233 kts | 271° |
| 2026-05-04 14:04 | 51.54730 | -0.56032 | 4002 ft | 233 kts | 271° |
| 2026-05-04 14:05 | 51.54755 | -0.61263 | 3992 ft | 234 kts | 271° |
| 2026-05-04 14:05 | 51.54766 | -0.63878 | 3984 ft | 234 kts | 271° |
| 2026-05-04 14:05 | 51.54775 | -0.66491 | 3994 ft | 234 kts | 271° |
| 2026-05-04 14:06 | 51.54786 | -0.69108 | 3991 ft | 234 kts | 270° |
| 2026-05-04 14:06 | 51.54797 | -0.71711 | 3996 ft | 234 kts | 271° |
| 2026-05-04 14:06 | 51.54809 | -0.74341 | 3987 ft | 235 kts | 271° |
| 2026-05-04 14:06 | 51.54820 | -0.76947 | 3987 ft | 234 kts | 270° |
| 2026-05-04 14:07 | 51.54833 | -0.79569 | 3990 ft | 234 kts | 270° |
| 2026-05-04 14:07 | 51.54846 | -0.82180 | 3987 ft | 232 kts | 271° |
| 2026-05-04 14:07 | 51.54857 | -0.84713 | 3980 ft | 224 kts | 271° |
| 2026-05-04 14:07 | 51.54865 | -0.87165 | 3968 ft | 221 kts | 271° |
| 2026-05-04 14:08 | 51.54874 | -0.89613 | 3979 ft | 219 kts | 271° |
| 2026-05-04 14:08 | 51.54882 | -0.92018 | 3981 ft | 219 kts | 271° |
| 2026-05-04 14:08 | 51.54889 | -0.94460 | 3995 ft | 219 kts | 270° |
| 2026-05-04 14:08 | 51.54897 | -0.96875 | 4001 ft | 220 kts | 270° |
| 2026-05-04 14:09 | 51.54930 | -1.01888 | 4003 ft | 226 kts | 270° |
| 2026-05-04 14:09 | 51.54752 | -1.04335 | 3911 ft | 218 kts | 246° |
| 2026-05-04 14:10 | 51.52470 | -1.06835 | 3439 ft | 209 kts | 176° |
| 2026-05-04 14:10 | 51.51123 | -1.06095 | 3165 ft | 206 kts | 144° |
| 2026-05-04 14:10 | 51.49974 | -1.04693 | 3043 ft | 209 kts | 135° |
| 2026-05-04 14:10 | 51.48983 | -1.02997 | 3003 ft | 207 kts | 131° |
| 2026-05-04 14:11 | 51.48223 | -1.01097 | 2990 ft | 202 kts | 106° |
| 2026-05-04 14:11 | 51.47583 | -0.96714 | 2909 ft | 200 kts | 98° |
| 2026-05-04 14:11 | 51.47408 | -0.94476 | 2567 ft | 203 kts | 95° |
| 2026-05-04 14:12 | 51.47295 | -0.92202 | 2528 ft | 206 kts | 91° |
| 2026-05-04 14:12 | 51.47243 | -0.89910 | 2491 ft | 206 kts | 91° |
| 2026-05-04 14:12 | 51.47195 | -0.85422 | 2472 ft | 199 kts | 88° |
| 2026-05-04 14:13 | 51.47221 | -0.83208 | 2480 ft | 200 kts | 88° |
| 2026-05-04 14:13 | 51.47273 | -0.80963 | 2491 ft | 202 kts | 84° |
| 2026-05-04 14:13 | 51.47440 | -0.78707 | 2512 ft | 205 kts | 81° |
| 2026-05-04 14:13 | 51.47670 | -0.76454 | 2476 ft | 204 kts | 73° |
| 2026-05-04 14:14 | 51.47876 | -0.74241 | 2458 ft | 201 kts | 102° |
| 2026-05-04 14:14 | 51.47538 | -0.70166 | 2513 ft | 182 kts | 87° |
| 2026-05-04 14:14 | 51.47588 | -0.68138 | 2504 ft | 181 kts | 86° |
| 2026-05-04 14:15 | 51.47650 | -0.64176 | 2491 ft | 173 kts | 88° |
| 2026-05-04 14:15 | 51.47798 | -0.60445 | 1920 ft | 167 kts | 83° |
| 2026-05-04 14:16 | 51.47724 | -0.57068 | 1361 ft | 138 kts | 93° |
| 2026-05-04 14:16 | 51.47697 | -0.55551 | 1016 ft | 128 kts | 86° |
| 2026-05-04 14:17 | 51.47756 | -0.52708 | 584 ft | 132 kts | 88° |
| 2026-05-04 14:17 | 51.47744 | -0.51267 | 426 ft | 126 kts | 87° |
| 2026-05-04 14:17 | 51.47752 | -0.48396 | 99 ft | 135 kts | 88° |
| 2026-05-04 14:18 | 51.47767 | -0.47003 | 91 ft | 108 kts | 92° |
| 2026-05-04 14:18 | 51.47765 | -0.45634 | 84 ft | 1 kts | 84° |
| 2026-05-04 14:19 | 51.47763 | -0.45445 | 85 ft | 30 kts | 96° |
| 2026-05-04 14:19 | 51.47691 | -0.45181 | 86 ft | 21 kts | 176° |
| 2026-05-04 14:19 | 51.47629 | -0.45177 | 87 ft | 0 kts | 178° |
| 2026-05-04 14:23 | 51.47567 | -0.45178 | 86 ft | 15 kts | 180° |
| 2026-05-04 14:23 | 51.47510 | -0.45290 | 90 ft | 16 kts | 268° |
| 2026-05-04 14:24 | 51.47509 | -0.45439 | 86 ft | 0 kts | 270° |
| 2026-05-04 14:24 | 51.47509 | -0.45541 | 86 ft | 12 kts | 270° |
| 2026-05-04 14:24 | 51.47509 | -0.45728 | 87 ft | 26 kts | 275° |
| 2026-05-04 14:25 | 51.47507 | -0.45835 | 89 ft | 10 kts | 218° |
| 2026-05-04 14:25 | 51.47436 | -0.45826 | 86 ft | 0 kts | 178° |